Time;durP1;ratioP1;P1;durP2;ratioP2;P2;SDS_P1;SDS_P2;PMS_P1;PMS_P2;Temp;Humidity;BMP_temperature;BMP_pressure;BME280_temperature;BME280_humidity;BME280_pressure;Samples;Min_cycle;Max_cycle;Signal;HPM_P1;HPM_P2
2024/03/17 08:55:38;;;;;;;;;;;;;;;13.20;69.87;99193.22;5143634;27;19965;-82
2024/03/17 08:58:04;;;;;;;;;;;;;;;13.52;72.55;99195.03;5105671;28;19932;-81
2024/03/17 09:00:30;;;;;;;;;;;;;;;13.63;67.85;99186.34;5100837;28;19912;-83
2024/03/17 09:02:55;;;;;;;;;;;;;;;13.84;63.43;99188.47;5108262;28;19916;-83
2024/03/17 09:05:20;;;;;;;;;;;;;;;14.00;62.26;99193.09;5107745;28;19918;-83
2024/03/17 09:07:46;;;;;;;;;;;;;;;14.31;61.95;99184.91;5106484;28;19942;-81
2024/03/17 09:10:13;;;;;;;;;;;;;;;14.65;59.21;99182.13;5106559;28;19912;-83
2024/03/17 09:12:38;;;;;;;;;;;;;;;15.08;58.30;99175.75;5106371;28;20414;-82
2024/03/17 09:15:04;;;;;;;;;;;;;;;15.61;54.72;99179.28;5106349;28;19920;-82
2024/03/17 09:17:30;;;;;;;;;;;;;;;15.63;55.15;99179.59;5106441;28;19912;-82
2024/03/17 09:19:55;;;;;;;;;;;;;;;16.28;54.63;99170.91;5106710;28;19985;-81
2024/03/17 09:22:20;;;;;;;;;;;;;;;16.49;50.97;99172.00;5109271;28;19919;-82
2024/03/17 09:24:47;;;;;;;;;;;;;;;16.73;51.36;99168.63;5125021;28;20002;-82
2024/03/17 09:27:13;;;;;;;;;;;;;;;17.14;50.99;99159.53;5108302;28;19919;-83
2024/03/17 09:29:38;;;;;;;;;;;;;;;17.80;45.55;99159.59;5125206;28;19916;-84
2024/03/17 09:32:03;;;;;;;;;;;;;;;17.96;46.49;99155.63;5109113;28;19919;-83
2024/03/17 09:34:30;;;;;;;;;;;;;;;18.05;46.07;99149.97;5108791;28;20335;-82
2024/03/17 09:36:56;;;;;;;;;;;;;;;18.93;45.41;99159.34;5108967;28;19919;-83
2024/03/17 09:39:24;;;;;;;;;;;;;;;18.84;45.26;99150.28;5109069;28;19916;-79
2024/03/17 09:41:49;;;;;;;;;;;;;;;19.26;45.37;99136.75;5124356;28;20028;-84
2024/03/17 09:44:15;;;;;;;;;;;;;;;19.56;43.36;99145.91;5108565;28;19984;-82
2024/03/17 09:46:40;;;;;;;;;;;;;;;19.22;44.50;99138.97;5107945;28;19923;-82
2024/03/17 09:49:13;;;;;;;;;;;;;;;19.39;42.04;99137.22;5124349;28;19916;-83
2024/03/17 09:51:39;;;;;;;;;;;;;;;18.80;45.20;99139.28;5108856;28;19920;-79
2024/03/17 09:54:15;;;;;;;;;;;;;;;19.11;43.73;99133.94;5118874;28;20358;-83
2024/03/17 09:56:41;;;;;;;;;;;;;;;18.82;45.09;99139.56;5103073;28;19947;-81
2024/03/17 09:59:06;;;;;;;;;;;;;;;19.34;44.94;99135.09;5124299;28;19955;-81
2024/03/17 10:01:31;;;;;;;;;;;;;;;19.19;44.02;99137.13;5123960;28;19927;-83
2024/03/17 10:04:03;;;;;;;;;;;;;;;18.88;45.53;99134.81;5095051;28;19916;-82
2024/03/17 10:06:28;;;;;;;;;;;;;;;19.30;45.77;99125.34;5114233;28;19916;-82
2024/03/17 10:08:55;;;;;;;;;;;;;;;19.33;44.18;99132.78;5090282;28;20281;-83
2024/03/17 10:11:21;;;;;;;;;;;;;;;18.90;43.30;99126.72;5079113;28;19970;-83
2024/03/17 10:13:46;;;;;;;;;;;;;;;19.28;43.39;99125.84;5106916;28;19949;-83
2024/03/17 10:16:23;;;;;;;;;;;;;;;19.32;41.88;99137.59;5089190;28;19981;-83
2024/03/17 10:18:48;;;;;;;;;;;;;;;18.70;42.62;99124.59;5111341;28;20306;-83
2024/03/17 10:21:27;;;;;;;;;;;;;;;19.55;39.81;99127.53;5110908;28;19995;-82
2024/03/17 10:24:08;;;;;;;;;;;;;;;19.04;41.75;99123.16;5111534;28;19913;-84
2024/03/17 10:26:38;;;;;;;;;;;;;;;19.73;42.69;99123.72;5108463;28;19912;-84
2024/03/17 10:29:04;;;;;;;;;;;;;;;18.95;41.13;99114.06;5111098;28;19919;-82
2024/03/17 10:31:30;;;;;;;;;;;;;;;19.06;41.60;99115.03;5095216;28;19912;-85
2024/03/17 10:34:02;;;;;;;;;;;;;;;18.49;42.28;99114.50;5110615;28;19915;-82
2024/03/17 10:36:27;;;;;;;;;;;;;;;19.20;40.55;99109.91;5109108;28;19923;-82
2024/03/17 10:38:55;;;;;;;;;;;;;;;19.60;40.32;99098.81;5108136;28;20167;-83
2024/03/17 10:41:22;;;;;;;;;;;;;;;19.78;39.90;99092.94;5107940;28;20242;-84
2024/03/17 10:43:47;;;;;;;;;;;;;;;19.69;41.01;99087.50;5092658;28;19912;-82
2024/03/17 10:46:14;;;;;;;;;;;;;;;19.53;40.28;99093.59;5108569;28;20023;-82
2024/03/17 10:48:41;;;;;;;;;;;;;;;19.54;41.52;99097.19;5108702;28;19927;-82
2024/03/17 10:51:14;;;;;;;;;;;;;;;19.72;39.58;99091.31;5093919;28;20388;-82
2024/03/17 10:53:39;;;;;;;;;;;;;;;19.60;39.61;99089.63;5108930;28;20382;-82
2024/03/17 10:56:08;;;;;;;;;;;;;;;19.09;40.45;99086.06;5109880;28;19948;-82
2024/03/17 10:58:40;;;;;;;;;;;;;;;18.81;42.11;99079.22;5093741;28;19912;-82
2024/03/17 11:01:07;;;;;;;;;;;;;;;18.64;41.70;99084.53;5090207;28;20303;-82
2024/03/17 11:03:33;;;;;;;;;;;;;;;18.94;39.95;99067.72;5092848;28;20356;-81
2024/03/17 11:05:59;;;;;;;;;;;;;;;18.84;41.72;99063.50;5094008;28;19912;-83
2024/03/17 11:08:25;;;;;;;;;;;;;;;19.10;40.38;99075.63;5108850;28;19915;-82
2024/03/17 11:10:54;;;;;;;;;;;;;;;19.10;41.77;99070.03;5087737;28;20310;-81
2024/03/17 11:13:26;;;;;;;;;;;;;;;19.25;44.46;99058.78;5090417;28;19927;-82
2024/03/17 11:16:04;;;;;;;;;;;;;;;20.03;42.18;99057.81;5110074;28;20024;-82
2024/03/17 11:18:34;;;;;;;;;;;;;;;19.76;39.10;99061.84;5095169;28;20292;-79
2024/03/17 11:21:06;;;;;;;;;;;;;;;19.59;38.60;99057.28;5109515;28;19923;-79
2024/03/17 11:23:32;;;;;;;;;;;;;;;20.00;39.39;99056.00;5087137;28;20449;-79
2024/03/17 11:25:58;;;;;;;;;;;;;;;20.39;38.91;99053.66;5089116;28;19916;-82
2024/03/17 11:28:44;;;;;;;;;;;;;;;19.46;39.29;99055.59;5110130;28;19955;-79
2024/03/17 11:31:28;;;;;;;;;;;;;;;19.49;38.70;99043.38;5094647;28;19922;-81
2024/03/17 11:33:53;;;;;;;;;;;;;;;19.33;40.36;99043.13;5092942;28;19916;-82
2024/03/17 11:36:25;;;;;;;;;;;;;;;19.45;41.67;99037.22;5092583;28;19923;-82
2024/03/17 11:39:27;;;;;;;;;;;;;;;19.40;40.28;99037.88;5109425;28;20395;-81
2024/03/17 11:41:53;;;;;;;;;;;;;;;19.95;39.67;99033.50;5083812;28;19916;-84
2024/03/17 11:44:36;;;;;;;;;;;;;;;19.92;41.40;99021.22;5109258;28;19920;-82
2024/03/17 11:47:08;;;;;;;;;;;;;;;19.85;40.60;99018.84;5109386;28;19920;-83
2024/03/17 11:49:34;;;;;;;;;;;;;;;19.47;40.34;99029.06;5108917;28;19924;-82
2024/03/17 11:52:08;;;;;;;;;;;;;;;19.75;39.54;99017.47;5093383;28;19916;-82
2024/03/17 11:54:36;;;;;;;;;;;;;;;19.98;38.52;99015.69;5108893;28;19924;-81
2024/03/17 11:57:03;;;;;;;;;;;;;;;20.36;37.37;99017.41;5108494;28;19912;-80
2024/03/17 11:59:29;;;;;;;;;;;;;;;20.53;37.15;99015.50;5092967;28;19912;-79
2024/03/17 12:01:54;;;;;;;;;;;;;;;20.25;37.95;99009.63;5091431;28;19924;-80
2024/03/17 12:04:20;;;;;;;;;;;;;;;20.41;37.23;99011.06;5109050;28;20354;-81
2024/03/17 12:06:46;;;;;;;;;;;;;;;20.30;38.98;99001.25;5108630;28;19916;-81
2024/03/17 12:09:20;;;;;;;;;;;;;;;20.85;37.47;99008.66;5086859;28;20027;-81
2024/03/17 12:11:45;;;;;;;;;;;;;;;21.01;36.23;99001.59;5089775;28;20015;-81
2024/03/17 12:14:19;;;;;;;;;;;;;;;21.45;34.59;99003.94;5092723;28;19916;-81
2024/03/17 12:16:52;;;;;;;;;;;;;;;20.85;36.06;98997.41;5093072;28;19912;-82
2024/03/17 12:19:17;;;;;;;;;;;;;;;21.62;33.94;98999.16;5108609;28;19961;-82
2024/03/17 12:21:44;;;;;;;;;;;;;;;21.66;33.99;98999.69;5108162;28;20374;-81
2024/03/17 12:24:14;;;;;;;;;;;;;;;21.98;32.99;99000.34;5108500;28;19949;-81
2024/03/17 12:26:39;;;;;;;;;;;;;;;21.92;32.86;98991.09;5108732;28;20000;-81
2024/03/17 12:29:04;;;;;;;;;;;;;;;21.63;34.35;98997.13;5108329;28;19916;-80
2024/03/17 12:31:30;;;;;;;;;;;;;;;22.27;35.76;98990.69;5108572;28;19916;-82
2024/03/17 12:33:55;;;;;;;;;;;;;;;22.02;33.93;98997.28;5108376;28;19933;-82
2024/03/17 12:36:21;;;;;;;;;;;;;;;21.70;37.17;98996.66;5091396;28;19989;-83
2024/03/17 12:38:46;;;;;;;;;;;;;;;21.88;36.62;98990.56;5092850;28;19919;-82
2024/03/17 12:41:17;;;;;;;;;;;;;;;21.93;37.75;98989.81;5108177;28;19912;-83
2024/03/17 12:43:49;;;;;;;;;;;;;;;22.30;37.02;98984.06;5093216;28;19912;-83
2024/03/17 12:46:14;;;;;;;;;;;;;;;22.02;37.08;98986.78;5078719;28;19912;-81
2024/03/17 12:48:39;;;;;;;;;;;;;;;22.12;36.42;98979.66;5108953;28;19934;-82
2024/03/17 12:51:12;;;;;;;;;;;;;;;22.52;35.85;98984.06;5092535;28;20308;-82
2024/03/17 12:53:38;;;;;;;;;;;;;;;22.75;35.32;98979.22;5108208;28;20015;-81
2024/03/17 13:01:31;;;;;;;;;;;;;;;20.36;36.95;98969.69;5092558;28;19969;-81
2024/03/17 13:04:04;;;;;;;;;;;;;;;19.72;38.21;98962.34;5107470;28;19916;-81
2024/03/17 13:06:30;;;;;;;;;;;;;;;20.50;37.25;98968.78;5099188;28;19928;-84
2024/03/17 13:08:55;;;;;;;;;;;;;;;21.33;37.39;98960.19;5097324;28;19970;-83
2024/03/17 13:11:20;;;;;;;;;;;;;;;21.48;37.11;98961.53;5094504;28;19923;-81
2024/03/17 13:13:45;;;;;;;;;;;;;;;21.49;36.80;98959.47;5086653;28;20364;-80
2024/03/17 13:16:13;;;;;;;;;;;;;;;21.15;38.04;98960.56;5101307;28;20422;-81
2024/03/17 13:18:38;;;;;;;;;;;;;;;21.08;38.18;98964.63;5090864;28;20007;-85
2024/03/17 13:21:04;;;;;;;;;;;;;;;21.07;38.06;98960.25;5107890;28;19955;-83
2024/03/17 13:23:29;;;;;;;;;;;;;;;21.15;38.21;98958.56;5107946;28;20397;-82
2024/03/17 13:25:56;;;;;;;;;;;;;;;20.79;38.39;98956.50;5092123;28;20355;-84
2024/03/17 13:28:21;;;;;;;;;;;;;;;20.97;39.09;98953.31;5094303;28;20623;-83
2024/03/17 13:30:47;;;;;;;;;;;;;;;20.75;38.83;98951.09;5107860;28;19912;-82
2024/03/17 13:33:13;;;;;;;;;;;;;;;20.78;39.38;98949.34;5107762;28;20004;-83
2024/03/17 13:35:39;;;;;;;;;;;;;;;20.92;39.35;98945.59;5107522;28;20084;-83
2024/03/17 13:38:08;;;;;;;;;;;;;;;20.40;39.30;98947.78;5077086;28;19912;-85
2024/03/17 13:40:34;;;;;;;;;;;;;;;20.58;38.01;98941.78;5108044;28;19912;-81
2024/03/17 13:42:59;;;;;;;;;;;;;;;20.34;38.21;98941.34;5094366;28;19926;-83
2024/03/17 13:45:28;;;;;;;;;;;;;;;20.73;38.15;98936.03;5094583;28;19999;-83
2024/03/17 13:47:56;;;;;;;;;;;;;;;20.76;37.83;98943.44;5111395;28;19924;-81
2024/03/17 13:50:22;;;;;;;;;;;;;;;20.87;37.66;98944.28;5095350;28;19916;-82
2024/03/17 13:52:48;;;;;;;;;;;;;;;20.80;36.05;98941.94;5094373;28;19922;-82
2024/03/17 13:55:20;;;;;;;;;;;;;;;20.82;38.96;98933.81;5094732;28;19924;-83
2024/03/17 13:57:47;;;;;;;;;;;;;;;20.98;37.24;98935.94;5094427;28;19916;-82
2024/03/17 14:00:15;;;;;;;;;;;;;;;21.33;34.70;98937.69;5111130;28;19924;-80
2024/03/17 14:02:44;;;;;;;;;;;;;;;21.31;34.30;98935.38;5111049;28;19916;-83
2024/03/17 14:05:14;;;;;;;;;;;;;;;20.45;36.76;98933.00;5094047;28;19923;-84
2024/03/17 14:07:39;;;;;;;;;;;;;;;21.21;36.26;98927.69;5094206;28;19922;-82
2024/03/17 14:10:05;;;;;;;;;;;;;;;21.01;35.50;98932.13;5093977;28;20011;-81
2024/03/17 14:12:31;;;;;;;;;;;;;;;21.70;36.44;98921.47;5093993;28;20037;-85
2024/03/17 14:14:56;;;;;;;;;;;;;;;21.50;34.67;98918.84;5110247;28;19920;-82
2024/03/17 14:17:21;;;;;;;;;;;;;;;20.75;35.90;98920.22;5110586;28;20399;-83
2024/03/17 14:19:47;;;;;;;;;;;;;;;20.65;36.17;98918.88;5095151;28;20072;-80
2024/03/17 14:22:12;;;;;;;;;;;;;;;20.41;37.29;98913.59;5093730;28;19916;-84
2024/03/17 14:24:37;;;;;;;;;;;;;;;20.76;36.70;98923.78;5110611;28;20383;-80
2024/03/17 14:27:03;;;;;;;;;;;;;;;20.59;35.65;98923.69;5110256;28;20384;-82
2024/03/17 14:29:29;;;;;;;;;;;;;;;20.85;34.75;98921.56;5110141;28;19916;-82
2024/03/17 14:31:54;;;;;;;;;;;;;;;20.76;34.99;98930.19;5094897;28;19926;-84
2024/03/17 14:34:19;;;;;;;;;;;;;;;20.26;34.95;98926.94;5110590;28;19924;-83
2024/03/17 14:36:45;;;;;;;;;;;;;;;21.22;36.39;98923.59;5093529;28;19923;-82
2024/03/17 14:39:11;;;;;;;;;;;;;;;20.90;37.32;98918.03;5111159;28;19924;-82
2024/03/17 14:41:36;;;;;;;;;;;;;;;20.87;38.28;98923.88;5110116;28;19916;-83
2024/03/17 14:44:03;;;;;;;;;;;;;;;21.04;37.78;98919.88;5094344;28;19924;-81
2024/03/17 14:46:29;;;;;;;;;;;;;;;20.80;38.67;98918.72;5110009;28;20667;-84
2024/03/17 14:48:54;;;;;;;;;;;;;;;20.73;38.21;98911.53;5109990;28;19967;-80
2024/03/17 14:51:22;;;;;;;;;;;;;;;20.83;37.63;98920.53;5092722;28;19931;-82
2024/03/17 14:53:48;;;;;;;;;;;;;;;20.58;38.23;98913.72;5090428;28;19974;-81
2024/03/17 14:56:15;;;;;;;;;;;;;;;20.64;38.69;98912.50;5082851;28;19920;-80
2024/03/17 14:58:40;;;;;;;;;;;;;;;20.61;37.55;98915.53;5109590;28;19964;-81
2024/03/17 15:01:05;;;;;;;;;;;;;;;20.61;37.57;98907.13;5109504;28;20018;-79
2024/03/17 15:03:31;;;;;;;;;;;;;;;20.60;37.31;98903.53;5093942;28;19916;-81
2024/03/17 15:05:56;;;;;;;;;;;;;;;20.14;39.09;98900.84;5093977;28;20474;-80
2024/03/17 15:08:21;;;;;;;;;;;;;;;19.73;39.47;98905.03;5109541;28;19916;-80
2024/03/17 15:10:46;;;;;;;;;;;;;;;19.39;39.61;98904.63;5109621;28;19916;-81
2024/03/17 15:13:14;;;;;;;;;;;;;;;19.56;39.84;98904.09;5092497;28;20002;-80
2024/03/17 15:15:40;;;;;;;;;;;;;;;19.51;40.09;98908.38;5109406;28;19924;-82
2024/03/17 15:18:05;;;;;;;;;;;;;;;20.00;39.02;98904.56;5093574;28;19973;-81
2024/03/17 15:20:30;;;;;;;;;;;;;;;19.87;38.18;98904.16;5093696;28;19912;-81
2024/03/17 15:22:57;;;;;;;;;;;;;;;19.72;39.03;98909.09;5092416;28;19923;-80
2024/03/17 15:25:24;;;;;;;;;;;;;;;19.88;38.57;98902.91;5109472;28;19912;-81
2024/03/17 15:27:50;;;;;;;;;;;;;;;19.41;41.17;98909.75;5090615;28;19921;-79
2024/03/17 15:30:18;;;;;;;;;;;;;;;19.61;39.84;98906.94;5081931;28;20364;-82
2024/03/17 15:32:44;;;;;;;;;;;;;;;19.64;41.17;98900.38;5093412;28;19982;-79
2024/03/17 15:35:10;;;;;;;;;;;;;;;19.76;41.07;98906.84;5092293;28;20379;-80
2024/03/17 15:37:35;;;;;;;;;;;;;;;19.66;40.99;98911.84;5092999;28;20010;-81
2024/03/17 15:40:00;;;;;;;;;;;;;;;19.75;40.61;98902.50;5109004;28;19912;-81
2024/03/17 15:42:27;;;;;;;;;;;;;;;19.34;42.08;98910.19;5093258;28;19920;-81
2024/03/17 15:44:52;;;;;;;;;;;;;;;19.13;43.35;98906.59;5108986;28;19912;-81
2024/03/17 15:47:17;;;;;;;;;;;;;;;19.00;42.81;98908.97;5108761;28;19921;-80
2024/03/17 15:49:44;;;;;;;;;;;;;;;19.33;41.23;98909.41;5093189;28;19941;-83
2024/03/17 15:52:09;;;;;;;;;;;;;;;19.24;41.85;98912.34;5091996;28;19924;-80
2024/03/17 15:54:37;;;;;;;;;;;;;;;19.18;40.86;98913.53;5102137;28;19924;-80
2024/03/17 15:57:03;;;;;;;;;;;;;;;19.46;39.68;98911.88;5087146;28;19961;-84
2024/03/17 15:59:28;;;;;;;;;;;;;;;19.12;40.63;98916.25;5103203;28;20007;-81
2024/03/17 16:01:53;;;;;;;;;;;;;;;19.21;42.47;98923.75;5109117;28;19919;-81
2024/03/17 16:04:24;;;;;;;;;;;;;;;18.83;44.99;98924.75;5108505;28;19916;-83
2024/03/17 16:06:49;;;;;;;;;;;;;;;18.87;44.59;98928.13;5094967;28;19977;-81
2024/03/17 16:09:17;;;;;;;;;;;;;;;18.56;44.27;98926.66;5112525;28;19896;-83
2024/03/17 16:11:43;;;;;;;;;;;;;;;18.85;43.89;98930.66;5106218;28;19967;-82
2024/03/17 16:14:09;;;;;;;;;;;;;;;18.39;44.39;98931.19;5084258;28;20011;-82
2024/03/17 16:16:34;;;;;;;;;;;;;;;18.27;44.35;98937.84;5107956;28;19951;-81
2024/03/17 16:19:00;;;;;;;;;;;;;;;18.20;44.95;98930.59;5091698;28;20398;-83
2024/03/17 16:21:26;;;;;;;;;;;;;;;18.08;45.33;98940.09;5103362;28;20484;-83
2024/03/17 16:23:59;;;;;;;;;;;;;;;17.86;46.47;98937.63;5108949;28;19912;-80
2024/03/17 16:26:25;;;;;;;;;;;;;;;17.99;47.00;98936.59;5091972;28;20002;-82
2024/03/17 16:28:50;;;;;;;;;;;;;;;17.84;48.13;98940.13;5098262;28;20331;-82
2024/03/17 16:31:17;;;;;;;;;;;;;;;18.00;49.03;98940.94;5087079;28;19920;-82
2024/03/17 16:33:42;;;;;;;;;;;;;;;17.99;48.44;98947.78;5083461;28;19947;-81
2024/03/17 16:36:08;;;;;;;;;;;;;;;17.64;49.44;98948.41;5108745;28;19969;-81
2024/03/17 16:38:34;;;;;;;;;;;;;;;17.78;48.75;98953.22;5094367;28;19970;-81
2024/03/17 16:41:01;;;;;;;;;;;;;;;17.44;49.05;98956.59;5079201;28;20307;-81
2024/03/17 16:43:45;;;;;;;;;;;;;;;17.14;49.62;98957.72;5109681;28;20316;-80
2024/03/17 16:46:28;;;;;;;;;;;;;;;17.51;46.54;98961.81;5108035;28;19923;-80
2024/03/17 16:48:53;;;;;;;;;;;;;;;17.22;45.85;98956.91;5107990;28;19981;-79
2024/03/17 16:51:19;;;;;;;;;;;;;;;17.49;46.55;98965.09;5098972;28;20369;-81
2024/03/17 16:53:46;;;;;;;;;;;;;;;17.70;42.91;98973.66;5086034;28;19928;-80
2024/03/17 16:56:11;;;;;;;;;;;;;;;17.98;40.67;98977.75;5107637;28;19973;-80
2024/03/17 16:58:37;;;;;;;;;;;;;;;17.84;39.67;98968.09;5090637;28;19916;-79
2024/03/17 17:01:02;;;;;;;;;;;;;;;18.06;40.94;98976.13;5107771;28;19912;-80
2024/03/17 17:03:27;;;;;;;;;;;;;;;18.11;40.29;98985.88;5106599;28;19923;-79
2024/03/17 17:05:53;;;;;;;;;;;;;;;17.19;43.36;98980.19;5081056;28;19916;-79
2024/03/17 17:08:18;;;;;;;;;;;;;;;17.73;44.21;98984.66;5091697;28;19957;-80
2024/03/17 17:10:43;;;;;;;;;;;;;;;17.22;44.82;98973.66;5091025;28;19916;-80
2024/03/17 17:13:09;;;;;;;;;;;;;;;17.53;43.85;98980.91;5107798;28;20413;-79
2024/03/17 17:15:34;;;;;;;;;;;;;;;17.23;45.17;98982.81;5108461;28;19920;-80
2024/03/17 17:17:59;;;;;;;;;;;;;;;17.60;45.74;98980.56;5113447;28;19924;-79
2024/03/17 17:20:25;;;;;;;;;;;;;;;17.60;44.54;98984.13;5107850;28;19923;-80
2024/03/17 17:22:51;;;;;;;;;;;;;;;17.46;43.93;98982.81;5094697;28;19916;-79
2024/03/17 17:25:18;;;;;;;;;;;;;;;17.58;41.80;98995.00;5111659;28;19916;-78
2024/03/17 17:27:43;;;;;;;;;;;;;;;17.45;41.96;99002.84;5111606;28;19916;-79
2024/03/17 17:30:09;;;;;;;;;;;;;;;17.32;42.27;99007.88;5096090;28;19931;-79
2024/03/17 17:32:35;;;;;;;;;;;;;;;17.38;43.23;99005.97;5111339;28;19971;-80
2024/03/17 17:35:00;;;;;;;;;;;;;;;17.62;43.89;99009.56;5112381;28;19920;-80
2024/03/17 17:37:26;;;;;;;;;;;;;;;17.46;43.89;99010.75;5098257;28;19974;-80
2024/03/17 17:39:51;;;;;;;;;;;;;;;17.37;44.15;99012.81;5114485;28;19916;-80
2024/03/17 17:42:19;;;;;;;;;;;;;;;17.24;44.82;99012.28;5095701;28;20002;-80
2024/03/17 17:44:44;;;;;;;;;;;;;;;17.30;45.09;99007.59;5111895;28;20427;-80
2024/03/17 17:47:09;;;;;;;;;;;;;;;16.79;46.51;98980.56;5111878;28;19920;-80
2024/03/17 17:49:35;;;;;;;;;;;;;;;16.91;46.52;99001.91;5112591;28;19916;-80
2024/03/17 17:52:03;;;;;;;;;;;;;;;16.74;47.98;99000.72;5111051;28;19963;-78
2024/03/17 17:54:28;;;;;;;;;;;;;;;17.03;48.41;99006.50;5094862;28;19924;-80
2024/03/17 17:56:53;;;;;;;;;;;;;;;16.86;47.80;99008.13;5110801;28;20443;-79
2024/03/17 17:59:19;;;;;;;;;;;;;;;16.73;49.14;99007.56;5111252;28;20440;-80
2024/03/17 18:01:44;;;;;;;;;;;;;;;16.75;50.43;99007.88;5110707;28;20450;-80
2024/03/17 18:04:10;;;;;;;;;;;;;;;16.34;51.43;99006.53;5106283;28;19987;-78
2024/03/17 18:06:35;;;;;;;;;;;;;;;16.54;51.38;99006.03;5087932;28;19916;-79
2024/03/17 18:09:10;;;;;;;;;;;;;;;16.26;51.73;99008.13;5093620;28;19915;-78
2024/03/17 18:11:35;;;;;;;;;;;;;;;16.09;52.07;99006.91;5093723;28;19916;-81
2024/03/17 18:14:01;;;;;;;;;;;;;;;16.05;52.57;99007.06;5111462;28;19916;-81
2024/03/17 18:16:28;;;;;;;;;;;;;;;15.92;52.71;99020.38;5100973;28;19924;-78
2024/03/17 18:18:53;;;;;;;;;;;;;;;16.11;52.70;99016.34;5095132;28;20007;-82
2024/03/17 18:21:21;;;;;;;;;;;;;;;16.12;53.57;99012.31;5110812;28;19978;-80
2024/03/17 18:23:48;;;;;;;;;;;;;;;16.20;53.27;99012.78;5111238;28;19947;-82
2024/03/17 18:26:13;;;;;;;;;;;;;;;15.97;53.51;99008.63;5099123;28;19923;-81
2024/03/17 18:28:39;;;;;;;;;;;;;;;15.69;55.24;99007.84;5115236;28;19916;-79
2024/03/17 18:31:08;;;;;;;;;;;;;;;15.71;54.36;99004.59;5113506;28;20363;-83
2024/03/17 18:33:37;;;;;;;;;;;;;;;15.93;53.09;99007.22;5093085;28;20384;-81
2024/03/17 18:36:22;;;;;;;;;;;;;;;15.89;51.17;99004.59;5094013;28;19920;-80
2024/03/17 18:38:48;;;;;;;;;;;;;;;16.18;49.97;99010.44;5108528;28;19981;-82
2024/03/17 18:41:14;;;;;;;;;;;;;;;16.13;50.01;99008.28;5101129;28;19970;-80
2024/03/17 18:43:48;;;;;;;;;;;;;;;16.13;50.77;99018.66;5085513;28;20365;-80
2024/03/17 18:46:14;;;;;;;;;;;;;;;15.70;52.25;99006.59;5078354;28;19912;-81
2024/03/17 18:48:41;;;;;;;;;;;;;;;15.87;52.03;99013.41;5093254;28;20416;-82
2024/03/17 18:51:07;;;;;;;;;;;;;;;16.08;52.11;99016.50;5107908;28;19912;-80
2024/03/17 18:53:32;;;;;;;;;;;;;;;16.21;51.56;99009.50;5078536;28;19931;-80
2024/03/17 18:55:59;;;;;;;;;;;;;;;15.98;51.43;99012.16;5109727;28;20026;-80
2024/03/17 18:58:24;;;;;;;;;;;;;;;15.99;53.70;99006.13;5094489;28;19916;-79
2024/03/17 19:00:53;;;;;;;;;;;;;;;15.78;52.26;99009.88;5093490;28;20268;-79
2024/03/17 19:03:19;;;;;;;;;;;;;;;15.81;52.91;99011.72;5092399;28;19922;-81
2024/03/17 19:05:45;;;;;;;;;;;;;;;15.86;52.70;99013.88;5093359;28;19919;-82
2024/03/17 19:08:10;;;;;;;;;;;;;;;15.80;53.55;99013.72;5094714;28;20288;-83
2024/03/17 19:10:36;;;;;;;;;;;;;;;15.87;52.53;99016.19;5095194;28;19922;-81
2024/03/17 19:13:02;;;;;;;;;;;;;;;15.48;53.09;99023.44;5092046;28;19916;-82
2024/03/17 19:15:27;;;;;;;;;;;;;;;15.58;52.60;99029.03;5093433;28;19919;-81
2024/03/17 19:17:53;;;;;;;;;;;;;;;15.38;53.35;99019.06;5110359;28;20340;-81
2024/03/17 19:20:19;;;;;;;;;;;;;;;15.62;51.83;99029.66;5077648;28;19938;-81
2024/03/17 19:22:44;;;;;;;;;;;;;;;15.77;50.55;99025.03;5096831;28;19912;-82
2024/03/17 19:25:11;;;;;;;;;;;;;;;15.93;49.31;99016.34;5092535;28;19942;-80
2024/03/17 19:27:37;;;;;;;;;;;;;;;16.00;49.31;99018.84;5102187;28;19916;-80
2024/03/17 19:30:04;;;;;;;;;;;;;;;15.68;49.63;99016.66;5096561;28;20356;-80
2024/03/17 19:32:29;;;;;;;;;;;;;;;15.58;50.34;99020.69;5112143;28;20417;-81
2024/03/17 19:34:55;;;;;;;;;;;;;;;15.42;51.39;99022.50;5088760;28;19960;-81
2024/03/17 19:37:20;;;;;;;;;;;;;;;15.16;52.88;99012.84;5091539;28;19947;-82
2024/03/17 19:39:45;;;;;;;;;;;;;;;15.03;53.54;99023.31;5100608;28;19920;-82
2024/03/17 19:42:11;;;;;;;;;;;;;;;15.47;53.32;99015.53;5096581;28;19919;-84
2024/03/17 19:44:36;;;;;;;;;;;;;;;15.44;53.61;99020.00;5084670;28;19916;-83
2024/03/17 19:47:02;;;;;;;;;;;;;;;15.39;54.32;99022.63;5081915;28;19962;-83
2024/03/17 19:49:27;;;;;;;;;;;;;;;15.34;55.64;99023.22;5101091;28;19999;-83
2024/03/17 19:51:52;;;;;;;;;;;;;;;15.22;56.76;99026.91;5075241;28;19992;-82
2024/03/17 19:54:18;;;;;;;;;;;;;;;15.40;56.89;99024.94;5093295;28;19931;-83
2024/03/17 19:56:43;;;;;;;;;;;;;;;15.13;59.38;99029.69;5108243;28;20388;-80
2024/03/17 19:59:08;;;;;;;;;;;;;;;14.99;57.69;99023.44;5096014;28;19916;-81
2024/03/17 20:01:34;;;;;;;;;;;;;;;15.03;58.07;99026.84;5092177;28;19916;-83
2024/03/17 20:04:01;;;;;;;;;;;;;;;14.85;58.48;99028.78;5080500;28;19920;-80
2024/03/17 20:06:26;;;;;;;;;;;;;;;14.61;58.53;99025.75;5109088;28;19916;-83
2024/03/17 20:08:52;;;;;;;;;;;;;;;14.97;56.47;99009.22;5106571;28;20053;-81
2024/03/17 20:11:22;;;;;;;;;;;;;;;15.16;55.01;99017.63;5097860;28;19913;-81
2024/03/17 20:13:48;;;;;;;;;;;;;;;15.34;55.20;99015.66;5089544;28;19916;-82
2024/03/17 20:16:26;;;;;;;;;;;;;;;15.18;55.61;99021.50;5092737;28;19927;-82
2024/03/17 20:18:52;;;;;;;;;;;;;;;15.26;55.00;99022.75;5091215;28;19920;-81
2024/03/17 20:21:18;;;;;;;;;;;;;;;15.28;54.82;99023.06;5111528;28;19916;-83
2024/03/17 20:23:44;;;;;;;;;;;;;;;15.43;54.92;99024.00;5091304;28;19920;-82
2024/03/17 20:26:13;;;;;;;;;;;;;;;15.34;54.76;99023.22;5099814;28;19923;-83
2024/03/17 20:28:38;;;;;;;;;;;;;;;15.30;55.01;99026.19;5099474;28;20014;-83
2024/03/17 20:31:04;;;;;;;;;;;;;;;15.40;54.98;99026.97;5099259;28;20400;-81
2024/03/17 20:33:30;;;;;;;;;;;;;;;15.58;54.62;99034.59;5097353;28;20367;-83
2024/03/17 20:35:56;;;;;;;;;;;;;;;15.61;54.60;99025.34;5097638;28;20007;-84
2024/03/17 20:38:21;;;;;;;;;;;;;;;15.76;53.79;99023.47;5091770;28;20050;-84
2024/03/17 20:40:47;;;;;;;;;;;;;;;15.65;55.03;99023.16;5100919;28;20319;-82
2024/03/17 20:43:12;;;;;;;;;;;;;;;15.81;55.01;99025.63;5078470;28;19920;-80
2024/03/17 20:45:38;;;;;;;;;;;;;;;15.67;54.44;99024.22;5086274;28;19955;-82
2024/03/17 20:48:03;;;;;;;;;;;;;;;15.44;55.48;99013.66;5095336;28;19920;-84
2024/03/17 20:50:29;;;;;;;;;;;;;;;15.65;54.64;99017.59;5108472;28;20076;-83
2024/03/17 20:52:55;;;;;;;;;;;;;;;15.47;54.88;99021.09;5092669;28;20320;-84
2024/03/17 20:55:20;;;;;;;;;;;;;;;15.55;54.21;99016.81;5090042;28;19928;-82
2024/03/17 20:57:45;;;;;;;;;;;;;;;15.79;54.01;99017.72;5084260;28;19923;-83
2024/03/17 21:00:26;;;;;;;;;;;;;;;15.80;54.25;99013.72;5096922;28;19912;-83
2024/03/17 21:02:53;;;;;;;;;;;;;;;15.64;54.91;99024.41;5092599;28;19963;-84
2024/03/17 21:05:24;;;;;;;;;;;;;;;15.67;55.54;99029.06;5104684;28;19918;-84
2024/03/17 21:07:53;;;;;;;;;;;;;;;15.75;55.36;99021.91;5096517;28;19937;-83
2024/03/17 21:10:18;;;;;;;;;;;;;;;15.80;55.20;99024.09;5081079;28;19923;-87
2024/03/17 21:12:48;;;;;;;;;;;;;;;15.64;55.83;99021.59;5090248;28;19916;-82
2024/03/17 21:15:14;;;;;;;;;;;;;;;15.83;56.50;99017.59;5079077;28;19913;-83
2024/03/17 21:17:40;;;;;;;;;;;;;;;15.71;56.85;99013.72;5084744;28;19923;-81
2024/03/17 21:20:07;;;;;;;;;;;;;;;15.74;56.17;99012.78;5079311;28;20008;-81
2024/03/17 21:22:36;;;;;;;;;;;;;;;15.75;55.89;99010.78;5103937;28;19954;-81
2024/03/17 21:25:07;;;;;;;;;;;;;;;15.71;55.85;99010.16;5084200;28;19999;-81
2024/03/17 21:27:33;;;;;;;;;;;;;;;15.34;57.38;99007.31;5085167;28;19919;-80
2024/03/17 21:29:59;;;;;;;;;;;;;;;15.43;57.28;99007.31;5090745;28;20648;-81
2024/03/17 21:32:25;;;;;;;;;;;;;;;15.21;57.82;99006.66;5084303;28;19925;-81
2024/03/17 21:34:51;;;;;;;;;;;;;;;15.30;57.27;99006.69;5070777;28;19928;-82
2024/03/17 21:37:16;;;;;;;;;;;;;;;15.21;58.31;99006.66;5079693;28;19920;-80
2024/03/17 21:39:42;;;;;;;;;;;;;;;15.30;56.69;99006.69;5090777;28;19943;-82
2024/03/17 21:42:11;;;;;;;;;;;;;;;15.19;58.16;98997.97;5087805;28;19970;-82
2024/03/17 21:44:36;;;;;;;;;;;;;;;15.23;57.80;99006.97;5071095;28;19927;-81
2024/03/17 21:47:02;;;;;;;;;;;;;;;15.10;58.45;99000.75;5093040;28;19927;-83